Time;durP1;ratioP1;P1;durP2;ratioP2;P2;SDS_P1;SDS_P2;PMS_P1;PMS_P2;Temp;Humidity;BMP_temperature;BMP_pressure;BME280_temperature;BME280_humidity;BME280_pressure;Samples;Min_cycle;Max_cycle;Signal;HPM_P1;HPM_P2
2022/04/21 04:01:30;;;;;;;6.00;5.30;;;4.70;96.30;;;;;;5467424;23;20503;-74
2022/04/21 04:03:56;;;;;;;6.43;5.60;;;4.60;96.30;;;;;;4976571;28;20939;-74
2022/04/21 04:11:50;;;;;;;5.70;5.17;;;4.60;96.30;;;;;;4994106;28;20995;-75
2022/04/21 04:14:16;;;;;;;5.87;5.37;;;4.60;96.30;;;;;;4981989;28;20496;-75
2022/04/21 04:16:41;;;;;;;8.40;6.17;;;4.60;96.30;;;;;;5002222;28;20189;-75
2022/04/21 04:19:10;;;;;;;8.50;6.10;;;4.60;96.30;;;;;;4989296;28;20428;-76
2022/04/21 04:21:36;;;;;;;5.63;5.13;;;4.60;96.30;;;;;;4976156;23;20230;-74
2022/04/21 04:24:02;;;;;;;6.33;5.27;;;4.60;96.30;;;;;;4974302;28;20406;-75
2022/04/21 04:26:28;;;;;;;6.50;5.90;;;4.70;96.30;;;;;;4956869;28;20480;-75
2022/04/21 04:28:54;;;;;;;7.10;6.20;;;4.70;96.30;;;;;;4974291;28;20445;-76
2022/04/21 04:31:19;;;;;;;6.90;6.20;;;4.70;96.30;;;;;;4973978;28;20422;-76
2022/04/21 04:33:45;;;;;;;6.67;6.07;;;4.70;96.30;;;;;;4956732;28;20210;-77
2022/04/21 04:36:11;;;;;;;7.60;6.90;;;4.80;96.30;;;;;;4974026;28;20174;-77
2022/04/21 04:38:37;;;;;;;6.83;5.90;;;4.80;96.30;;;;;;4973818;28;20174;-76
2022/04/21 04:42:16;;;;;;;9.37;6.67;;;4.80;96.30;;;;;;4973884;28;20194;-78
2022/04/21 04:43:49;;;;;;;8.20;6.57;;;4.80;96.30;;;;;;4973787;28;20419;-77
2022/04/21 04:48:59;;;;;;;10.70;6.90;;;4.90;96.30;;;;;;4973781;28;20158;-77
2022/04/21 04:51:27;;;;;;;10.70;6.87;;;5.00;96.30;;;;;;4973803;28;20429;-76
2022/04/21 04:53:53;;;;;;;7.40;6.70;;;5.00;96.30;;;;;;4956665;28;20578;-76
2022/04/21 04:56:22;;;;;;;8.50;7.20;;;5.00;96.30;;;;;;4958803;28;20420;-77
2022/04/21 04:58:48;;;;;;;7.90;7.20;;;5.00;96.30;;;;;;4918017;29;20412;-78
2022/04/21 05:01:26;;;;;;;7.27;6.50;;;5.00;96.30;;;;;;4935146;29;20443;-78
2022/04/21 05:03:53;;;;;;;7.20;6.50;;;5.10;96.30;;;;;;4918204;29;20562;-78
2022/04/21 05:06:18;;;;;;;7.53;6.63;;;5.20;96.30;;;;;;4918079;29;20423;-77
2022/04/21 05:08:44;;;;;;;8.33;7.30;;;5.20;96.30;;;;;;4917888;29;20431;-78
2022/04/21 05:11:11;;;;;;;13.13;9.40;;;5.20;96.30;;;;;;4944363;28;20202;-77
2022/04/21 05:13:36;;;;;;;24.57;16.77;;;5.30;96.30;;;;;;4960216;28;20190;-77
2022/04/21 05:16:02;;;;;;;25.67;16.90;;;5.30;96.30;;;;;;4953972;29;20820;-77
2022/04/21 05:18:28;;;;;;;24.60;17.10;;;5.20;96.30;;;;;;4961013;28;20791;-76
2022/04/21 05:20:53;;;;;;;19.70;14.60;;;5.20;96.30;;;;;;4955216;28;20269;-77
2022/04/21 05:23:24;;;;;;;11.80;10.17;;;5.30;96.30;;;;;;4973368;28;20182;-76
2022/04/21 05:25:50;;;;;;;11.17;9.27;;;5.30;96.30;;;;;;4973033;28;20642;-77
2022/04/21 05:28:15;;;;;;;8.17;7.40;;;5.40;96.30;;;;;;4956992;28;20426;-77
2022/04/21 05:30:58;;;;;;;7.20;6.40;;;5.40;96.30;;;;;;4953887;29;20277;-77
2022/04/21 05:33:25;;;;;;;7.53;5.40;;;5.40;96.30;;;;;;4946711;29;20282;-77
2022/04/21 05:35:51;;;;;;;8.80;6.17;;;5.40;96.30;;;;;;4953244;29;20469;-77
2022/04/21 05:38:19;;;;;;;7.10;6.37;;;5.40;96.30;;;;;;4953022;29;20402;-78
2022/04/21 05:40:45;;;;;;;7.53;6.83;;;5.30;96.30;;;;;;4944104;29;20935;-78
2022/04/21 05:43:12;;;;;;;6.90;6.00;;;5.30;96.30;;;;;;4934832;29;20448;-75
2022/04/21 05:45:38;;;;;;;7.67;6.87;;;5.40;96.30;;;;;;4933313;29;20788;-76
2022/04/21 05:48:04;;;;;;;8.93;6.77;;;5.40;96.30;;;;;;4934583;29;20400;-76
2022/04/21 05:50:31;;;;;;;6.80;5.73;;;5.40;96.30;;;;;;4926593;28;20457;-76
2022/04/21 05:53:01;;;;;;;7.53;6.83;;;5.40;96.30;;;;;;4960832;28;20468;-81
2022/04/21 05:55:26;;;;;;;8.27;7.47;;;5.40;96.30;;;;;;4936688;29;20414;-75
2022/04/21 05:57:52;;;;;;;8.70;7.90;;;5.40;96.30;;;;;;4953569;29;20418;-76
2022/04/21 06:00:17;;;;;;;10.20;8.50;;;5.30;96.30;;;;;;4953715;28;20578;-75
2022/04/21 06:02:43;;;;;;;12.20;8.33;;;5.30;96.30;;;;;;4953872;29;20284;-75
2022/04/21 06:05:09;;;;;;;11.73;9.00;;;5.30;96.30;;;;;;4953768;29;20203;-75
2022/04/21 06:07:34;;;;;;;13.43;9.03;;;5.30;96.30;;;;;;4953550;29;20678;-75
2022/04/21 06:10:00;;;;;;;10.23;8.73;;;5.30;96.30;;;;;;4953612;29;20190;-77
2022/04/21 06:12:25;;;;;;;20.63;8.80;;;5.40;96.30;;;;;;4936277;29;20203;-75
2022/04/21 06:14:51;;;;;;;13.43;8.83;;;5.40;96.30;;;;;;4953791;29;20179;-77
2022/04/21 06:17:17;;;;;;;10.40;8.83;;;5.40;96.30;;;;;;4953683;29;20635;-75
2022/04/21 06:19:43;;;;;;;14.47;10.40;;;5.50;96.30;;;;;;4953516;29;20415;-76
2022/04/21 06:22:08;;;;;;;20.83;11.57;;;5.50;96.30;;;;;;4953513;28;20211;-77
2022/04/21 06:24:35;;;;;;;14.13;10.77;;;5.60;96.30;;;;;;4953954;29;20175;-76
2022/04/21 06:27:02;;;;;;;17.67;11.33;;;5.60;96.30;;;;;;4953334;29;20650;-77
2022/04/21 06:29:27;;;;;;;15.30;11.53;;;5.70;96.30;;;;;;4953445;29;20407;-75
2022/04/21 06:31:53;;;;;;;13.60;11.57;;;5.80;96.30;;;;;;4954643;28;20496;-78
2022/04/21 06:34:18;;;;;;;22.83;13.87;;;5.80;96.30;;;;;;4957306;29;20230;-78
2022/04/21 06:36:44;;;;;;;21.63;12.70;;;5.80;96.30;;;;;;4939983;29;20167;-77
2022/04/21 06:39:09;;;;;;;20.00;12.77;;;5.90;96.30;;;;;;4956798;29;20171;-78
2022/04/21 06:41:35;;;;;;;14.80;11.97;;;5.90;96.30;;;;;;4939977;29;20632;-77
2022/04/21 06:49:28;;;;;;;24.30;13.67;;;5.90;96.30;;;;;;4957092;29;20918;-76
2022/04/21 06:51:54;;;;;;;26.53;14.20;;;6.00;96.30;;;;;;4956793;28;20442;-78
2022/04/21 06:54:19;;;;;;;46.13;13.57;;;6.10;96.30;;;;;;4956877;29;20575;-77
2022/04/21 06:56:48;;;;;;;36.70;14.20;;;6.10;96.30;;;;;;4956989;29;20183;-76
2022/04/21 06:59:17;;;;;;;39.80;13.07;;;6.10;96.30;;;;;;4937726;28;20206;-78
2022/04/21 07:01:46;;;;;;;33.70;12.93;;;6.00;96.30;;;;;;4931301;29;20529;-78
2022/04/21 07:04:12;;;;;;;68.83;14.63;;;6.10;96.30;;;;;;4956066;29;20435;-79
2022/04/21 07:06:38;;;;;;;46.33;14.33;;;6.20;96.30;;;;;;4945491;28;20455;-78
2022/04/21 07:09:03;;;;;;;63.23;13.57;;;6.20;96.30;;;;;;4971112;28;20439;-80
2022/04/21 07:11:29;;;;;;;54.77;14.47;;;6.20;96.30;;;;;;4962899;28;20211;-77
2022/04/21 07:13:55;;;;;;;41.13;14.83;;;6.10;96.30;;;;;;4958078;28;20247;-80
2022/04/21 07:16:21;;;;;;;58.13;13.47;;;6.20;96.30;;;;;;4938948;29;20183;-80
2022/04/21 07:18:46;;;;;;;31.80;13.70;;;6.20;96.30;;;;;;4940158;29;20411;-76
2022/04/21 07:21:11;;;;;;;54.17;12.77;;;6.30;96.30;;;;;;4937469;29;20683;-78
2022/04/21 07:23:39;;;;;;;47.30;13.63;;;6.30;96.30;;;;;;4937514;29;20200;-78
2022/04/21 07:26:05;;;;;;;55.97;14.90;;;6.40;96.30;;;;;;4937640;29;20262;-77
2022/04/21 07:28:30;;;;;;;43.00;13.23;;;6.40;96.30;;;;;;4935997;29;20416;-76
2022/04/21 07:30:56;;;;;;;28.80;13.20;;;6.30;96.30;;;;;;4937507;29;20578;-76
2022/04/21 07:33:21;;;;;;;43.57;13.57;;;6.30;96.30;;;;;;4937215;29;20203;-78
2022/04/21 07:35:47;;;;;;;52.73;12.83;;;6.30;96.30;;;;;;4937169;29;20211;-76
2022/04/21 07:38:12;;;;;;;31.43;13.07;;;6.30;96.30;;;;;;4936758;29;20648;-76
2022/04/21 07:40:41;;;;;;;19.67;11.80;;;6.20;96.30;;;;;;4937123;29;20554;-77
2022/04/21 07:43:08;;;;;;;52.20;12.70;;;6.20;96.30;;;;;;4935457;29;20179;-76
2022/04/21 07:45:44;;;;;;;33.07;12.50;;;6.20;96.30;;;;;;4937016;29;20962;-77
2022/04/21 07:48:10;;;;;;;23.37;13.07;;;6.30;96.30;;;;;;4935154;29;20431;-77
2022/04/21 07:50:36;;;;;;;62.03;13.07;;;6.30;96.30;;;;;;4935512;29;20447;-79
2022/04/21 07:53:13;;;;;;;25.83;13.10;;;6.30;96.30;;;;;;4935353;29;20244;-76
2022/04/21 07:55:44;;;;;;;38.27;14.60;;;6.20;96.30;;;;;;4936568;29;20172;-76
2022/04/21 07:58:09;;;;;;;46.47;12.93;;;6.20;96.30;;;;;;4934722;29;20414;-74
2022/04/21 08:00:38;;;;;;;33.03;14.60;;;6.20;96.30;;;;;;4936528;29;20439;-74
2022/04/21 08:03:05;;;;;;;44.20;15.67;;;6.20;96.30;;;;;;4936385;29;20176;-76
2022/04/21 08:05:31;;;;;;;37.57;14.50;;;6.10;96.30;;;;;;4936619;29;20904;-74
2022/04/21 08:07:58;;;;;;;63.13;15.87;;;6.10;96.30;;;;;;4935862;29;20422;-74
2022/04/21 08:10:24;;;;;;;62.63;17.07;;;6.10;96.30;;;;;;4936257;29;20447;-75
2022/04/21 08:12:51;;;;;;;39.80;17.30;;;6.00;96.30;;;;;;4945479;29;20542;-74
2022/04/21 08:15:26;;;;;;;48.10;17.57;;;6.00;96.30;;;;;;4937890;29;20847;-74
2022/04/21 08:17:54;;;;;;;63.07;17.70;;;5.90;96.30;;;;;;4952293;29;20418;-73
2022/04/21 08:20:20;;;;;;;46.40;17.10;;;6.00;96.30;;;;;;4951955;29;20419;-79
2022/04/21 08:22:46;;;;;;;41.10;17.93;;;6.10;96.30;;;;;;4934086;29;20874;-79
2022/04/21 08:33:24;;;;;;;293.13;25.63;;;6.20;96.30;;;;;;4936686;29;20453;-79
2022/04/21 08:35:51;;;;;;;62.93;18.93;;;6.30;96.30;;;;;;4936630;29;20420;-79
2022/04/21 08:38:18;;;;;;;60.97;20.10;;;6.20;96.30;;;;;;4935738;29;20757;-79
2022/04/21 08:40:51;;;;;;;49.97;18.53;;;6.20;96.30;;;;;;4919280;29;20475;-79
2022/04/21 08:43:17;;;;;;;48.53;17.80;;;6.30;96.30;;;;;;4918937;29;20479;-78
2022/04/21 08:45:44;;;;;;;33.53;17.10;;;6.30;96.30;;;;;;4936018;29;20427;-79
2022/04/21 08:48:15;;;;;;;33.73;17.33;;;6.40;96.30;;;;;;4919103;29;20422;-80
2022/04/21 08:50:41;;;;;;;42.07;17.50;;;6.30;96.30;;;;;;4937485;29;20436;-75
2022/04/21 08:53:08;;;;;;;33.03;15.13;;;6.40;96.30;;;;;;4918327;29;20459;-76
2022/04/21 08:55:34;;;;;;;25.40;16.17;;;6.30;96.30;;;;;;4946117;29;20419;-79
2022/04/21 08:58:01;;;;;;;30.83;15.50;;;6.30;96.30;;;;;;4954531;28;20494;-73
2022/04/21 09:00:27;;;;;;;33.00;16.95;;;6.30;96.30;;;;;;4956203;28;20465;-74
2022/04/21 09:02:53;;;;;;;47.55;21.90;;;6.30;96.30;;;;;;4972496;28;20818;-74
2022/04/21 09:05:22;;;;;;;48.33;18.90;;;6.40;96.30;;;;;;4973731;28;20174;-74
2022/04/21 09:07:49;;;;;;;44.27;17.17;;;6.40;96.30;;;;;;4973148;28;20497;-78
2022/04/21 09:10:16;;;;;;;37.10;16.67;;;6.40;96.30;;;;;;4950476;28;20423;-78
2022/04/21 09:12:44;;;;;;;29.00;15.10;;;6.50;96.30;;;;;;4952099;29;20485;-78
2022/04/21 09:15:12;;;;;;;29.37;16.30;;;;;;;;;;4927043;29;20455;-78
2022/04/21 09:17:57;;;;;;;40.20;16.50;;;;;;;;;;4928534;29;20501;-79
2022/04/21 09:20:26;;;;;;;25.70;16.10;;;6.70;96.30;;;;;;4945840;29;20407;-78
2022/04/21 09:22:59;;;;;;;24.77;14.17;;;6.80;96.30;;;;;;4947966;29;20419;-79
2022/04/21 09:25:40;;;;;;;24.43;14.57;;;6.80;96.30;;;;;;4949117;29;20454;-79
2022/04/21 09:28:06;;;;;;;21.70;13.87;;;;;;;;;;4940190;29;20782;-79
2022/04/21 09:30:32;;;;;;;20.63;13.50;;;6.90;96.30;;;;;;4943269;29;20510;-79
2022/04/21 09:33:01;;;;;;;22.30;14.03;;;;;;;;;;4931345;29;20466;-78
2022/04/21 09:35:28;;;;;;;21.60;13.93;;;7.00;96.30;;;;;;4925281;29;20231;-79
2022/04/21 09:37:58;;;;;;;21.10;12.63;;;;;;;;;;4935290;29;20419;-79
2022/04/21 09:40:26;;;;;;;18.70;11.30;;;7.30;96.30;;;;;;4946808;29;20786;-77
2022/04/21 09:42:54;;;;;;;19.40;12.57;;;7.30;96.30;;;;;;4941654;29;20420;-77
2022/04/21 09:48:19;;;;;;;18.60;11.77;;;7.60;96.30;;;;;;4937070;29;20963;-79
2022/04/21 09:50:49;;;;;;;18.00;11.97;;;7.70;96.30;;;;;;4925810;29;20538;-79
2022/04/21 09:53:16;;;;;;;15.93;11.00;;;7.70;96.30;;;;;;4949227;29;20461;-79
2022/04/21 09:55:44;;;;;;;17.53;11.17;;;7.70;96.30;;;;;;4953792;29;20433;-77
2022/04/21 09:58:10;;;;;;;16.93;11.90;;;7.60;96.30;;;;;;4923481;29;20502;-75
2022/04/21 10:00:38;;;;;;;12.30;9.07;;;7.60;96.30;;;;;;4930988;29;20518;-78
2022/04/21 10:03:05;;;;;;;14.90;10.27;;;7.60;96.30;;;;;;4953761;29;20425;-77
2022/04/21 10:05:32;;;;;;;17.40;10.10;;;7.60;96.30;;;;;;4959391;28;20956;-77
2022/04/21 10:08:03;;;;;;;17.70;9.77;;;7.70;96.30;;;;;;4955770;28;20461;-78
2022/04/21 10:10:29;;;;;;;12.37;9.40;;;7.70;96.30;;;;;;4941759;28;20418;-75
2022/04/21 10:12:56;;;;;;;11.67;9.77;;;7.60;96.30;;;;;;4956194;29;20481;-78
2022/04/21 10:15:21;;;;;;;14.17;9.03;;;7.60;96.30;;;;;;4951870;29;20422;-78
2022/04/21 10:17:47;;;;;;;19.17;11.00;;;7.60;96.30;;;;;;4934861;29;20528;-77
2022/04/21 10:20:13;;;;;;;16.03;10.47;;;7.60;96.30;;;;;;4957101;29;20179;-78
2022/04/21 10:22:39;;;;;;;19.87;11.37;;;7.70;96.30;;;;;;4957973;29;20202;-74
2022/04/21 10:25:06;;;;;;;15.37;11.90;;;7.80;96.30;;;;;;4940401;29;20182;-74
2022/04/21 10:27:44;;;;;;;13.13;9.67;;;7.80;96.30;;;;;;4944221;29;20914;-73
2022/04/21 10:49:41;;;;;;;13.57;9.20;;;8.40;96.30;;;;;;4897536;29;20445;-74
2022/04/21 10:58:34;;;;;;;10.73;8.30;;;8.10;96.30;;;;;;4877729;29;20453;-74
2022/04/21 11:42:27;;;;;;;10.03;6.07;;;8.10;96.30;;;;;;1252399;23;20930;-77
2022/04/21 11:44:54;;;;;;;11.40;6.07;;;8.00;96.30;;;;;;4975174;28;20414;-77
2022/04/21 11:47:20;;;;;;;8.17;6.40;;;7.90;96.30;;;;;;4974825;28;20265;-77
2022/04/21 11:50:00;;;;;;;7.97;6.60;;;7.80;96.30;;;;;;4957423;28;20505;-77
2022/04/21 11:52:27;;;;;;;7.43;5.57;;;7.70;96.30;;;;;;4974680;28;20277;-77
2022/04/21 11:55:04;;;;;;;6.00;5.40;;;7.90;96.30;;;;;;4974904;28;20496;-77
2022/04/21 11:57:40;;;;;;;8.50;5.80;;;8.00;96.30;;;;;;4957169;28;20480;-76
2022/04/21 12:00:06;;;;;;;8.13;6.30;;;8.00;96.30;;;;;;4974740;28;20956;-77
2022/04/21 12:07:59;;;;;;;7.03;6.13;;;8.10;96.30;;;;;;4974489;28;20448;-77
2022/04/21 12:10:25;;;;;;;11.23;7.23;;;8.00;96.30;;;;;;4957083;28;20508;-77
2022/04/21 12:12:51;;;;;;;8.43;6.00;;;8.00;96.30;;;;;;4957022;28;20202;-77
2022/04/21 12:15:27;;;;;;;8.43;7.03;;;8.00;96.30;;;;;;4957100;28;20299;-77
2022/04/21 12:18:01;;;;;;;9.33;7.23;;;8.10;96.30;;;;;;4956771;28;20592;-77
2022/04/21 12:20:27;;;;;;;15.33;7.80;;;8.10;96.30;;;;;;4974348;28;20505;-77
2022/04/21 12:22:53;;;;;;;9.87;6.70;;;7.90;96.30;;;;;;4974336;28;20937;-77
2022/04/21 12:25:19;;;;;;;11.30;7.60;;;7.90;96.30;;;;;;4974164;28;20431;-77
2022/04/21 12:27:45;;;;;;;10.03;6.93;;;7.80;96.30;;;;;;4973876;28;20416;-77
2022/04/21 12:30:12;;;;;;;10.73;6.43;;;7.90;96.30;;;;;;4973078;28;20185;-77
2022/04/21 12:32:39;;;;;;;8.70;6.27;;;8.00;96.30;;;;;;4974078;28;20201;-77
2022/04/21 12:35:10;;;;;;;8.60;6.93;;;8.00;96.30;;;;;;4974013;28;20406;-77
2022/04/21 12:37:37;;;;;;;14.23;8.60;;;8.00;96.30;;;;;;4973765;28;20416;-77
2022/04/21 12:40:09;;;;;;;14.47;8.10;;;8.00;96.30;;;;;;4973856;28;20570;-77
2022/04/21 12:42:35;;;;;;;8.33;6.57;;;8.00;96.30;;;;;;4973756;28;20508;-77
2022/04/21 12:45:01;;;;;;;9.80;6.17;;;7.90;96.30;;;;;;4956439;28;20960;-77
2022/04/21 12:47:27;;;;;;;8.30;6.53;;;7.80;96.30;;;;;;4956346;28;20192;-77
2022/04/21 12:50:00;;;;;;;8.43;6.17;;;7.80;96.30;;;;;;4973716;28;20422;-77
2022/04/21 12:52:35;;;;;;;8.50;6.47;;;7.90;96.30;;;;;;4956258;28;20204;-77
2022/04/21 12:55:03;;;;;;;6.73;5.90;;;7.80;96.30;;;;;;4956341;28;20421;-77
2022/04/21 12:57:28;;;;;;;10.30;6.73;;;7.70;96.30;;;;;;4973434;28;20901;-77
2022/04/21 12:59:55;;;;;;;7.57;5.90;;;7.70;96.30;;;;;;4973592;28;20417;-77
2022/04/21 13:02:20;;;;;;;6.57;5.60;;;7.70;96.30;;;;;;4973521;28;20186;-77
2022/04/21 13:04:46;;;;;;;9.70;7.00;;;7.70;96.30;;;;;;4973601;28;20432;-77
2022/04/21 13:07:12;;;;;;;8.60;5.90;;;7.70;96.30;;;;;;4956156;28;20209;-77
2022/04/21 13:09:37;;;;;;;7.13;5.70;;;7.70;96.30;;;;;;4973271;28;20441;-77
2022/04/21 13:12:04;;;;;;;9.33;6.67;;;7.70;96.30;;;;;;4973307;28;20202;-77
2022/04/21 13:14:29;;;;;;;8.23;6.43;;;7.60;96.30;;;;;;4973271;28;20206;-77
2022/04/21 13:16:55;;;;;;;11.23;8.23;;;7.50;96.30;;;;;;4956001;28;20432;-77
2022/04/21 13:19:21;;;;;;;11.37;8.80;;;7.50;96.30;;;;;;4955790;28;20189;-77
2022/04/21 13:21:52;;;;;;;12.23;8.53;;;7.50;96.30;;;;;;4973143;28;20221;-78
2022/04/21 13:24:18;;;;;;;11.40;9.07;;;7.50;96.30;;;;;;4973305;28;20182;-77
2022/04/21 13:26:44;;;;;;;13.40;9.43;;;7.40;96.30;;;;;;4955978;28;20561;-77
2022/04/21 13:29:09;;;;;;;13.97;8.20;;;7.40;96.30;;;;;;4972568;28;20516;-77
2022/04/21 13:34:19;;;;;;;11.43;9.10;;;7.50;96.30;;;;;;4973264;28;20240;-77
2022/04/21 13:36:44;;;;;;;10.47;8.33;;;7.50;96.30;;;;;;4972940;28;20466;-77
2022/04/21 13:39:11;;;;;;;10.80;8.83;;;7.50;96.30;;;;;;4972788;28;20178;-77
2022/04/21 13:41:36;;;;;;;9.60;8.60;;;7.60;96.30;;;;;;4975419;28;20190;-77
2022/04/21 13:44:02;;;;;;;9.53;7.87;;;7.60;96.30;;;;;;4976984;28;20810;-77
2022/04/21 13:46:28;;;;;;;10.50;9.10;;;7.50;96.30;;;;;;4977160;28;20673;-77
2022/04/21 13:48:56;;;;;;;10.80;8.13;;;7.60;96.30;;;;;;4976824;28;20171;-77
2022/04/21 13:51:22;;;;;;;12.27;7.90;;;7.50;96.30;;;;;;4959631;28;20437;-77
2022/04/21 13:53:47;;;;;;;8.73;7.83;;;7.50;96.30;;;;;;4976966;28;20827;-77
2022/04/21 13:56:12;;;;;;;9.83;8.47;;;7.60;96.30;;;;;;4976926;28;20186;-77
2022/04/21 13:58:38;;;;;;;9.63;7.73;;;7.70;96.30;;;;;;4976665;28;20645;-77
2022/04/21 14:01:03;;;;;;;9.10;7.60;;;7.70;96.30;;;;;;4976795;28;20205;-77
2022/04/21 14:03:32;;;;;;;9.87;7.73;;;7.70;96.30;;;;;;4976798;28;20179;-77
2022/04/21 14:05:59;;;;;;;9.07;7.50;;;7.60;96.30;;;;;;4959427;28;20706;-77
2022/04/21 14:08:24;;;;;;;9.60;7.70;;;7.60;96.30;;;;;;4959325;28;20418;-77
2022/04/21 14:10:50;;;;;;;13.57;9.17;;;7.50;96.30;;;;;;4976585;28;20445;-77
2022/04/21 14:13:16;;;;;;;11.73;8.67;;;7.40;96.30;;;;;;4976584;28;20662;-78
2022/04/21 14:15:42;;;;;;;11.50;9.10;;;7.40;96.30;;;;;;4976687;28;20166;-77
2022/04/21 14:18:07;;;;;;;12.43;9.30;;;7.40;96.30;;;;;;4976275;28;20414;-78
2022/04/21 14:20:33;;;;;;;11.60;9.37;;;7.40;96.30;;;;;;4976463;28;20194;-77
2022/04/21 14:22:58;;;;;;;12.30;8.67;;;7.50;96.30;;;;;;4976513;28;20178;-78
2022/04/21 14:25:24;;;;;;;8.97;8.03;;;7.50;96.30;;;;;;4976447;28;20182;-78
2022/04/21 14:27:49;;;;;;;13.47;9.63;;;7.40;96.30;;;;;;4976214;28;20185;-78
2022/04/21 14:30:15;;;;;;;15.20;11.03;;;7.50;96.30;;;;;;4976284;28;20630;-78
2022/04/21 14:32:41;;;;;;;11.47;9.37;;;7.50;96.30;;;;;;4958977;28;20206;-78
2022/04/21 14:35:07;;;;;;;12.30;9.57;;;7.50;96.30;;;;;;4976325;28;20253;-78
2022/04/21 14:45:45;;;;;;;12.00;10.00;;;7.60;96.30;;;;;;4976475;28;20836;-78
2022/04/21 14:48:11;;;;;;;13.93;10.73;;;7.70;96.30;;;;;;4975835;28;20932;-78
2022/04/21 14:50:38;;;;;;;15.37;12.67;;;7.60;96.30;;;;;;4975989;28;20198;-78
2022/04/21 14:53:04;;;;;;;12.70;11.37;;;7.60;96.30;;;;;;4974785;28;20201;-78
2022/04/21 14:55:30;;;;;;;15.53;12.80;;;7.60;96.30;;;;;;4958514;28;20422;-78
2022/04/21 14:57:55;;;;;;;15.90;12.07;;;7.60;96.30;;;;;;4975736;28;20193;-78
2022/04/21 15:00:21;;;;;;;13.03;11.57;;;7.60;96.30;;;;;;4958417;28;20910;-77
2022/04/21 15:02:46;;;;;;;15.23;13.07;;;7.50;96.30;;;;;;4958424;28;20188;-78
2022/04/21 15:05:12;;;;;;;15.90;13.63;;;7.40;96.30;;;;;;4975835;28;20818;-78
2022/04/21 15:07:37;;;;;;;14.57;11.80;;;7.40;96.30;;;;;;4976387;28;20269;-80
2022/04/21 15:10:04;;;;;;;13.77;11.37;;;7.30;96.30;;;;;;4959697;28;20179;-79
2022/04/21 15:12:29;;;;;;;12.57;11.30;;;7.30;96.30;;;;;;4959076;28;20285;-79
2022/04/21 15:14:56;;;;;;;15.63;12.20;;;7.30;96.30;;;;;;4958955;28;20508;-79
2022/04/21 15:17:21;;;;;;;14.40;12.47;;;7.30;96.30;;;;;;4976392;28;20177;-79
2022/04/21 15:19:48;;;;;;;15.90;12.50;;;7.40;96.30;;;;;;4959091;28;20993;-79
2022/04/21 15:22:15;;;;;;;13.93;10.67;;;7.30;96.30;;;;;;4976640;28;20200;-77
2022/04/21 15:24:42;;;;;;;13.20;11.63;;;7.40;96.30;;;;;;4976570;28;20414;-79
2022/04/21 15:27:07;;;;;;;13.10;10.73;;;7.40;96.30;;;;;;4976632;28;20780;-79
2022/04/21 15:29:33;;;;;;;16.53;11.23;;;7.40;96.30;;;;;;4976135;28;20422;-79
2022/04/21 15:31:58;;;;;;;12.67;10.80;;;7.50;96.30;;;;;;4958651;28;20202;-79
2022/04/21 15:34:24;;;;;;;14.20;11.33;;;7.60;96.30;;;;;;4976117;28;20205;-79
2022/04/21 15:36:49;;;;;;;12.37;10.43;;;7.60;96.30;;;;;;4976021;28;20179;-79
2022/04/21 15:39:15;;;;;;;12.20;10.90;;;7.70;96.30;;;;;;4958581;28;20753;-79
2022/04/21 15:41:41;;;;;;;13.80;11.47;;;7.80;96.30;;;;;;4976032;28;20559;-79
2022/04/21 15:44:06;;;;;;;12.10;10.80;;;7.80;96.30;;;;;;4975959;28;20654;-79
2022/04/21 15:46:32;;;;;;;13.53;11.10;;;7.80;96.30;;;;;;4958952;28;20214;-79
2022/04/21 15:48:57;;;;;;;13.20;10.87;;;7.90;96.30;;;;;;4975934;28;20182;-79
2022/04/21 15:51:25;;;;;;;17.47;11.50;;;7.90;96.30;;;;;;4975801;28;20264;-79
2022/04/21 15:59:19;;;;;;;10.43;9.37;;;7.80;96.30;;;;;;4976058;28;20477;-79
2022/04/21 16:01:47;;;;;;;12.20;10.57;;;7.70;96.30;;;;;;4975723;28;20513;-79
2022/04/21 16:04:12;;;;;;;12.63;9.90;;;7.70;96.30;;;;;;4975470;28;20413;-79
2022/04/21 16:06:38;;;;;;;10.87;8.37;;;7.60;96.30;;;;;;4958384;28;20425;-78
2022/04/21 16:09:03;;;;;;;12.93;10.60;;;7.50;96.30;;;;;;4958514;28;20295;-79
2022/04/21 16:11:29;;;;;;;16.33;12.40;;;7.50;96.30;;;;;;4975536;28;20194;-79
2022/04/21 16:13:55;;;;;;;15.93;12.10;;;7.50;96.30;;;;;;4975285;28;20309;-79
2022/04/21 16:16:23;;;;;;;15.57;11.97;;;7.40;96.30;;;;;;4975446;28;20177;-79
2022/04/21 16:18:49;;;;;;;16.40;12.87;;;7.40;96.30;;;;;;4957550;28;21015;-79
2022/04/21 16:21:15;;;;;;;18.20;12.77;;;7.40;96.30;;;;;;4975960;28;20444;-79
2022/04/21 16:23:41;;;;;;;20.73;12.63;;;7.30;96.30;;;;;;4976545;28;20186;-79
2022/04/21 16:26:08;;;;;;;18.90;13.10;;;7.30;96.30;;;;;;4976055;28;20509;-80
2022/04/21 16:28:34;;;;;;;24.27;13.77;;;7.30;96.30;;;;;;4976214;28;20178;-79
2022/04/21 19:13:27;;;;;;;11.50;8.60;;;6.90;96.30;;;;;;5054173;23;20502;-78
2022/04/21 19:23:58;;;;;;;10.57;9.07;;;6.90;96.30;;;;;;4894085;29;20421;-77
2022/04/21 19:27:10;;;;;;;11.20;9.30;;;6.90;96.30;;;;;;4902264;29;20431;-76
2022/04/21 19:34:09;;;;;;;13.43;10.10;;;6.90;96.30;;;;;;4854855;29;20491;-77
2022/04/21 19:37:16;;;;;;;11.90;8.90;;;6.80;96.30;;;;;;4860027;29;20447;-77
2022/04/21 19:55:18;;;;;;;16.30;11.50;;;6.80;96.30;;;;;;5805374;23;20508;-76
2022/04/21 19:57:44;;;;;;;13.90;10.97;;;6.80;96.30;;;;;;4994052;28;20449;-77
2022/04/21 20:00:10;;;;;;;14.60;11.47;;;6.80;96.30;;;;;;4993801;28;20308;-76
2022/04/21 20:02:36;;;;;;;12.43;10.50;;;6.70;96.30;;;;;;4994067;28;20201;-76
2022/04/21 20:05:02;;;;;;;14.00;10.93;;;6.70;96.30;;;;;;4976516;28;20409;-75
2022/04/21 20:10:12;;;;;;;15.20;11.87;;;6.70;96.30;;;;;;4994664;28;20436;-79
2022/04/21 20:12:37;;;;;;;14.80;12.13;;;6.60;96.30;;;;;;4977359;28;20504;-79
2022/04/21 20:15:11;;;;;;;15.53;13.07;;;6.60;96.30;;;;;;4977483;28;20178;-82
2022/04/21 20:17:38;;;;;;;18.03;12.40;;;6.60;96.30;;;;;;4976704;28;20182;-79
2022/04/21 20:22:53;;;;;;;18.77;14.67;;;6.60;96.30;;;;;;4988328;28;20979;-79
2022/04/21 20:28:04;;;;;;;18.10;13.63;;;6.50;96.30;;;;;;4993824;28;20416;-78
2022/04/21 20:30:31;;;;;;;19.60;14.90;;;6.50;96.30;;;;;;4977095;28;20417;-78
2022/04/21 20:32:58;;;;;;;18.77;14.90;;;6.50;96.30;;;;;;4993491;28;20514;-75
2022/04/21 20:35:25;;;;;;;18.50;14.30;;;6.50;96.30;;;;;;4976294;28;20824;-78
2022/04/21 20:37:54;;;;;;;18.13;14.47;;;;;;;;;;4993631;28;20416;-77
2022/04/21 20:40:21;;;;;;;19.37;15.97;;;6.50;96.30;;;;;;4993721;28;20420;-76
2022/04/21 20:42:46;;;;;;;19.00;15.57;;;6.50;96.30;;;;;;4977871;28;20449;-77
2022/04/21 20:45:18;;;;;;;18.40;14.80;;;6.50;96.30;;;;;;4956457;28;20484;-76
2022/04/21 20:47:44;;;;;;;21.20;16.63;;;6.60;96.30;;;;;;4977108;28;20576;-76
2022/04/21 20:50:09;;;;;;;34.50;23.63;;;6.50;96.30;;;;;;4978195;28;20418;-76
2022/04/21 20:52:35;;;;;;;23.03;18.30;;;6.50;96.30;;;;;;4972979;28;20433;-77
2022/04/21 20:55:00;;;;;;;27.30;21.13;;;6.40;96.30;;;;;;4972614;28;20198;-76
2022/04/21 20:57:26;;;;;;;34.40;20.60;;;6.40;96.30;;;;;;4973364;28;20163;-75
2022/04/21 20:59:51;;;;;;;31.80;19.57;;;6.40;96.30;;;;;;4973575;28;20276;-74
2022/04/21 21:02:17;;;;;;;19.67;15.73;;;6.40;96.30;;;;;;4973586;28;20285;-78
2022/04/21 21:04:42;;;;;;;18.20;15.13;;;6.40;96.30;;;;;;4975032;28;20201;-75
2022/04/21 21:07:20;;;;;;;23.67;16.80;;;6.40;96.30;;;;;;4973335;28;20174;-76
2022/04/21 21:09:49;;;;;;;19.30;15.80;;;6.40;96.30;;;;;;4973406;28;20180;-77
2022/04/21 21:12:16;;;;;;;19.53;16.53;;;6.50;96.30;;;;;;4955925;28;20996;-75
2022/04/21 21:14:43;;;;;;;19.73;14.60;;;6.50;96.30;;;;;;4955981;28;20461;-75
2022/04/21 21:17:09;;;;;;;21.23;16.93;;;6.60;96.30;;;;;;4973521;28;20488;-75
2022/04/21 21:19:34;;;;;;;20.17;16.37;;;6.60;96.30;;;;;;4955801;28;20898;-75
2022/04/21 21:22:01;;;;;;;21.93;16.40;;;6.60;96.30;;;;;;4973315;28;20430;-76
2022/04/21 21:24:27;;;;;;;23.50;18.10;;;6.60;96.30;;;;;;4955994;28;20201;-75
2022/04/21 21:26:55;;;;;;;22.60;17.23;;;6.60;96.30;;;;;;4955877;28;20828;-76
2022/04/21 21:29:21;;;;;;;19.43;15.17;;;6.60;96.30;;;;;;4955610;28;20428;-75
2022/04/21 21:31:46;;;;;;;21.30;17.67;;;6.60;96.30;;;;;;4973238;28;20437;-76
2022/04/21 21:34:12;;;;;;;21.47;16.63;;;6.60;96.30;;;;;;4973064;28;20198;-75
2022/04/21 21:36:41;;;;;;;21.20;16.80;;;6.60;96.30;;;;;;4973158;28;20174;-75
2022/04/21 21:39:08;;;;;;;21.10;16.77;;;6.60;96.30;;;;;;4972951;28;20241;-76
2022/04/21 21:41:34;;;;;;;26.97;18.17;;;6.50;96.30;;;;;;4972928;28;20429;-75
2022/04/21 21:44:03;;;;;;;20.00;16.70;;;6.50;96.30;;;;;;4973219;28;20409;-75
2022/04/21 21:46:29;;;;;;;24.53;18.00;;;6.50;96.30;;;;;;4973064;28;20256;-78
2022/04/21 21:54:23;;;;;;;21.90;18.00;;;6.40;96.30;;;;;;4973170;28;20449;-76
2022/04/21 21:56:49;;;;;;;19.57;17.43;;;6.40;96.30;;;;;;4973075;28;20421;-75
2022/04/21 21:59:15;;;;;;;24.03;17.77;;;6.40;96.30;;;;;;4972926;28;20630;-75
2022/04/21 22:01:41;;;;;;;23.83;18.50;;;6.40;96.30;;;;;;4973840;28;20193;-75
2022/04/21 22:04:06;;;;;;;23.83;17.50;;;6.30;96.30;;;;;;4976926;28;20816;-75